Search for airport 
image banner adimage banner ad
image banner ad

DAUI - In Salah

Located in In Salah, Algeria

ICAO - DAUI, IATA - INZ

Data provided by Airmate  

General information

Coordinates: N27°15'13" E2°30'39"
Elevation is 895 feet MSL.
 
Rated:
View ratings: [VIEW]


View others Airports in Tamanghasset Province

Operational data

Open for public use
Current time UTC:
Current local time:
Weather
METAR: DAUI 070100Z 07012KT CAVOK 35/08 Q1010
TAF: TAF DAUI 062300Z 0700/0724 06014KT CAVOK PROB30 TEMPO 0700/0706 06015G25KT 4000 DRSA PROB30 TEMPO 0714/0720 06015G25KT 4000 DRSA
View NOTAMs / SUP AIP / TFR affecting this airport [VIEW]
Communications frequencies: [VIEW]

Runways:

RWY identifierQFULength (ft)Width (ft)SurfaceLDA (ft)
0551°9843148ASP
23231°9843148

Airport contact information

Address: In Salah Algeria

Satellite view of DAUI